Latest Weather Observations for Darwin Airport

IDD60901

Issued at 10:31 am CST Sunday 28 May 2017 (issued every 10 minutes, with the page automatically refreshed every 10 minutes)

About weather observations | Map of Darwin area stations | Latest observations for Darwin area | Other Formats
Station Details ID: 014015 Name: DARWIN AIRPORT Lat: -12.42 Lon: 130.89 Height: 30.4 m
Data from the previous 72 hours. | See also: Recent months at Darwin Airport
Date/Time
CST
Temp
°C
App
Temp
°C
Dew
Point
°C
Rel
Hum
%
Delta-T
°C
Wind Press
QNH
hPa
Press
MSL
hPa
Rain since
9am
mm
Dir  Spd
km/h
Gust
km/h
Spd
kts
Gust
kts
28/10:00am 28.1 26.5 17.5 52 6.7 E 22 28 12 15 1013.6 1013.4 0.0
28/09:30am 27.2 25.6 17.5 55 6.1 ESE 22 28 12 15 1013.6 1013.4 0.0
28/09:00am 26.5 25.1 16.9 55 6.0 ESE 20 26 11 14 1013.3 1013.1 0.0
28/08:30am 25.9 25.7 16.7 57 5.7 ESE 13 19 7 10 1012.9 1012.7 0.0
28/08:00am 25.4 27.0 17.9 63 4.7 E 6 9 3 5 1012.6 1012.4 0.0
28/07:30am 23.7 25.5 18.8 74 3.1 ESE 7 9 4 5 1012.2 1012.0 0.0
28/07:00am 23.1 25.1 18.8 77 2.7 ESE 6 6 3 3 1012.0 1011.8 0.0
28/06:30am 24.3 25.2 18.3 69 3.8 E 11 13 6 7 1011.9 1011.7 0.0
28/06:00am 24.5 25.0 18.3 68 3.9 ESE 13 15 7 8 1011.7 1011.5 0.0
28/05:30am 24.8 26.1 18.5 68 4.0 E 9 11 5 6 1011.4 1011.2 0.0
28/05:00am 25.2 26.2 18.6 67 4.2 ESE 11 13 6 7 1011.2 1011.0 0.0
28/04:30am 25.2 26.4 19.1 69 3.9 E 11 13 6 7 1011.2 1011.0 0.0
28/04:00am 24.8 26.6 19.5 72 3.4 SE 9 11 5 6 1011.3 1011.1 0.0
28/03:30am 24.5 25.9 19.5 73 3.2 SE 11 15 6 8 1011.6 1011.4 0.0
28/03:00am 24.6 26.0 19.5 73 3.3 SSE 11 13 6 7 1012.0 1011.8 0.0
28/02:30am 24.8 27.3 19.9 74 3.2 SE 6 6 3 3 1012.1 1011.9 0.0
28/02:00am 24.0 26.7 20.3 80 2.4 ESE 6 7 3 4 1012.2 1012.0 0.0
28/01:30am 24.1 26.8 20.3 79 2.5 ESE 6 6 3 3 1012.4 1012.2 0.0
28/01:00am 24.6 27.4 20.5 78 2.7 SE 6 6 3 3 1012.4 1012.2 0.0
28/12:30am 24.4 27.3 20.7 80 2.4 SSE 6 6 3 3 1012.5 1012.3 0.0
28/12:10am 24.4 28.5 20.7 80 2.4 CALM 0 0 0 0 1012.6 1012.4 0.0
28/12:00am 24.5 28.5 20.5 78 2.6 CALM 0 0 0 0 1012.6 1012.4 0.0
 
Date/Time
CST
Temp
°C
App
Temp
°C
Dew
Point
°C
Rel
Hum
%
Delta-T
°C
Wind Press
QNH
hPa
Press
MSL
hPa
Rain since
9am
mm
Dir  Spd
km/h
Gust
km/h
Spd
kts
Gust
kts
27/11:30pm 24.8 29.0 21.0 79 2.5 CALM 0 0 0 0 1012.8 1012.6 0.0
27/11:00pm 25.4 29.7 21.2 77 2.8 CALM 0 0 0 0 1012.8 1012.6 0.0
27/10:30pm 25.6 28.3 20.7 74 3.2 NNE 7 9 4 5 1012.8 1012.6 0.0
27/10:00pm 26.0 29.2 20.5 71 3.6 NE 4 7 2 4 1012.6 1012.4 0.0
27/09:30pm 26.1 28.2 20.1 69 3.9 NNE 9 11 5 6 1012.6 1012.4 0.0
27/09:00pm 26.2 28.2 19.9 68 4.1 NNE 9 11 5 6 1012.5 1012.3 0.0
27/08:30pm 26.4 28.1 19.3 65 4.6 NNE 9 11 5 6 1012.2 1012.0 0.0
27/08:00pm 26.3 27.7 18.6 62 4.9 NNE 9 13 5 7 1011.8 1011.6 0.0
27/07:30pm 26.4 27.3 17.5 58 5.6 NNE 9 11 5 6 1011.6 1011.4 0.0
27/07:00pm 26.8 27.5 17.0 55 6.1 NNE 9 13 5 7 1011.3 1011.1 0.0
27/06:30pm 27.8 27.5 16.4 50 7.1 NE 13 15 7 8 1011.0 1010.8 0.0
27/06:00pm 29.2 28.4 16.0 44 8.2 NE 15 20 8 11 1010.6 1010.4 0.0
27/05:30pm 30.4 28.4 14.9 39 9.5 NE 19 24 10 13 1010.3 1010.1 0.0
27/05:00pm 31.5 27.9 10.7 27 12.0 ENE 20 26 11 14 1010.2 1010.0 0.0
27/04:30pm 31.8 28.4 10.4 26 12.3 E 19 24 10 13 1010.0 1009.8 0.0
27/04:00pm 32.2 28.0 8.4 23 13.3 ENE 20 26 11 14 1009.9 1009.7 0.0
27/03:30pm 32.4 28.0 7.5 21 13.7 E 20 30 11 16 1009.9 1009.7 0.0
27/03:00pm 32.7 27.6 7.5 21 13.9 E 24 32 13 17 1010.0 1009.8 0.0
27/02:30pm 32.1 27.9 7.3 21 13.6 E 19 28 10 15 1010.3 1010.1 0.0
27/02:00pm 32.2 28.0 8.3 22 13.3 ESE 20 30 11 16 1010.7 1010.5 0.0
27/01:30pm 31.6 27.1 8.4 23 12.9 ESE 22 32 12 17 1011.2 1011.0 0.0
27/01:00pm 31.0 26.3 9.1 25 12.3 ESE 24 33 13 18 1011.5 1011.3 0.0
27/12:30pm 31.5 26.7 10.2 27 12.2 ESE 26 35 14 19 1011.9 1011.7 0.0
27/12:00pm 31.4 27.3 11.3 29 11.7 E 24 33 13 18 1012.2 1012.0 0.0
27/11:30am 30.2 26.2 11.9 32 10.7 E 24 33 13 18 1012.6 1012.4 0.0
27/11:00am 29.4 24.2 11.6 33 10.3 E 30 43 16 23 1013.0 1012.8 0.0
27/10:30am 29.4 24.7 12.1 34 10.1 E 28 35 15 19 1013.0 1012.8 0.0
27/10:00am 28.2 23.6 12.4 37 9.2 E 28 35 15 19 1013.1 1012.9 0.0
27/09:30am 27.6 25.5 15.3 47 7.5 E 20 30 11 16 1013.5 1013.3 0.0
27/09:00am 26.9 26.0 18.1 58 5.6 E 20 28 11 15 1013.6 1013.4 0.0
27/08:30am 26.1 26.9 19.1 65 4.5 E 13 17 7 9 1013.5 1013.3 0.0
27/08:00am 24.7 26.6 20.6 78 2.7 ESE 11 15 6 8 1013.4 1013.2 0.0
27/07:30am 23.7 26.7 21.3 86 1.6 E 7 11 4 6 1013.0 1012.8 0.0
27/07:00am 23.5 25.8 21.4 88 1.4 ESE 11 13 6 7 1012.6 1012.4 0.0
27/06:30am 23.8 26.5 21.4 86 1.6 E 9 11 5 6 1012.5 1012.3 0.0
27/06:00am 24.1 26.5 21.5 85 1.7 E 11 15 6 8 1012.1 1011.9 0.0
27/05:30am 24.4 27.3 21.7 85 1.8 E 9 11 5 6 1012.0 1011.8 0.0
27/05:00am 24.1 27.5 22.0 88 1.4 ESE 7 11 4 6 1011.9 1011.7 0.0
27/04:30am 24.6 27.3 22.2 86 1.6 ESE 11 13 6 7 1011.6 1011.4 0.0
27/04:00am 24.4 28.0 22.3 88 1.4 E 7 9 4 5 1011.5 1011.3 0.0
27/03:30am 24.4 28.1 22.3 88 1.4 ENE 6 7 3 4 1011.8 1011.6 0.0
27/03:00am 24.5 28.2 22.3 87 1.5 ENE 6 7 3 4 1012.1 1011.9 0.0
27/02:30am 24.6 28.1 22.1 86 1.7 ENE 7 9 4 5 1012.3 1012.1 0.0
27/02:00am 24.5 26.9 21.6 84 1.9 ENE 11 17 6 9 1012.4 1012.2 0.0
27/01:30am 24.6 27.7 21.4 82 2.1 ENE 7 9 4 5 1012.5 1012.3 0.0
27/01:00am 24.3 27.0 21.3 83 2.0 NE 9 11 5 6 1012.7 1012.5 0.0
27/12:30am 24.2 27.0 20.8 81 2.2 ENE 7 11 4 6 1012.6 1012.4 0.0
27/12:00am 24.0 26.9 21.0 83 2.0 NE 7 9 4 5 1012.7 1012.5 0.0
 
Date/Time
CST
Temp
°C
App
Temp
°C
Dew
Point
°C
Rel
Hum
%
Delta-T
°C
Wind Press
QNH
hPa
Press
MSL
hPa
Rain since
9am
mm
Dir  Spd
km/h
Gust
km/h
Spd
kts
Gust
kts
26/11:30pm 24.2 27.0 20.8 81 2.2 NE 7 11 4 6 1012.6 1012.4 0.0
26/11:00pm 23.9 26.8 21.0 84 1.9 NE 7 7 4 4 1012.5 1012.3 0.0
26/10:30pm 24.0 27.0 20.8 82 2.1 NE 6 7 3 4 1012.6 1012.4 0.0
26/10:00pm 24.2 27.1 20.7 81 2.3 NE 6 7 3 4 1012.6 1012.4 0.0
26/09:30pm 24.4 27.3 20.6 79 2.5 NE 6 6 3 3 1012.6 1012.4 0.0
26/09:00pm 24.9 27.7 20.5 76 2.9 NE 6 7 3 4 1012.5 1012.3 0.0
26/08:30pm 25.1 27.3 20.5 75 3.0 NNE 9 11 5 6 1012.3 1012.1 0.0
26/08:00pm 25.6 27.7 20.2 72 3.5 NNE 9 13 5 7 1012.2 1012.0 0.0
26/07:30pm 26.3 28.2 19.8 67 4.2 NNE 9 13 5 7 1011.9 1011.7 0.0
26/07:00pm 27.1 28.1 19.4 62 5.0 NE 13 17 7 9 1011.7 1011.5 0.0
26/06:30pm 27.5 28.2 19.7 62 5.1 NNE 15 19 8 10 1011.4 1011.2 0.0
26/06:00pm 28.7 29.1 19.1 56 6.2 NE 15 20 8 11 1011.0 1010.8 0.0
26/05:30pm 29.3 29.3 19.0 53 6.7 NE 17 22 9 12 1010.6 1010.4 0.0
26/05:00pm 29.8 29.7 18.8 51 7.1 NE 17 24 9 13 1010.3 1010.1 0.0
26/04:30pm 30.1 29.6 18.7 50 7.4 NE 19 28 10 15 1010.1 1009.9 0.0
26/04:00pm 30.8 30.2 18.4 47 8.0 NE 19 24 10 13 1010.1 1009.9 0.0
26/03:30pm 31.6 30.3 15.7 38 9.9 NE 17 24 9 13 1010.1 1009.9 0.0
26/03:00pm 31.3 29.2 15.1 37 10.0 E 20 28 11 15 1010.3 1010.1 0.0
26/02:30pm 30.8 28.0 14.2 36 10.1 E 22 32 12 17 1010.6 1010.4 0.0
26/02:00pm 30.7 28.4 14.2 36 10.0 E 19 28 10 15 1010.9 1010.7 0.0
26/01:30pm 30.5 26.7 13.7 35 10.1 E 26 33 14 18 1011.4 1011.2 0.0
26/01:00pm 30.4 27.2 14.2 37 9.8 E 24 35 13 19 1011.7 1011.5 0.0
26/12:30pm 30.1 26.2 14.3 38 9.6 E 28 37 15 20 1012.2 1012.0 0.0
26/12:00pm 30.0 25.6 14.1 37 9.6 E 30 41 16 22 1012.5 1012.3 0.0
26/11:30am 29.6 25.4 14.6 40 9.1 E 30 39 16 21 1012.9 1012.7 0.0
26/11:00am 29.2 24.7 14.9 41 8.7 E 32 46 17 25 1013.0 1012.8 0.0
26/10:30am 28.5 23.8 14.4 42 8.5 E 32 43 17 23 1013.5 1013.3 0.0
26/10:00am 28.3 23.6 13.3 39 8.9 E 30 44 16 24 1013.6 1013.4 0.0
26/09:30am 27.6 24.2 14.7 45 7.8 E 26 35 14 19 1013.6 1013.4 0.0
26/09:00am 27.1 25.0 15.1 47 7.3 ESE 20 30 11 16 1013.5 1013.3 0.0
26/08:30am 26.2 25.1 16.3 54 6.1 ESE 17 22 9 12 1013.4 1013.2 0.0
26/08:00am 25.5 24.6 16.8 58 5.4 ESE 17 22 9 12 1013.2 1013.0 0.0
26/07:30am 24.9 24.0 16.8 60 5.0 ESE 17 22 9 12 1012.8 1012.6 0.0
26/07:00am 24.8 24.5 17.4 63 4.6 ESE 15 19 8 10 1012.4 1012.2 0.0
26/06:30am 24.5 24.5 18.2 68 4.0 ESE 15 19 8 10 1012.0 1011.8 0.0
26/06:00am 24.3 24.8 18.3 69 3.8 ESE 13 17 7 9 1011.8 1011.6 0.0
26/05:30am 24.7 25.0 18.0 66 4.2 ESE 13 17 7 9 1011.5 1011.3 0.0
26/05:00am 25.1 24.6 17.8 64 4.6 E 17 19 9 10 1011.4 1011.2 0.0
26/04:30am 25.3 24.8 17.8 63 4.7 E 17 20 9 11 1011.3 1011.1 0.0
26/04:00am 25.3 25.0 18.2 64 4.5 E 17 20 9 11 1011.2 1011.0 0.0
26/03:30am 25.2 25.2 18.2 65 4.4 ESE 15 20 8 11 1011.1 1010.9 0.0
26/03:00am 25.4 26.0 18.7 66 4.3 E 13 19 7 10 1011.3 1011.1 0.0
26/02:30am 24.7 27.0 20.6 78 2.7 SE 9 13 5 7 1011.5 1011.3 0.0
26/02:00am 24.4 26.9 21.7 85 1.8 SSE 11 13 6 7 1011.7 1011.5 0.0
26/01:30am 24.5 27.5 22.0 86 1.7 SSE 9 13 5 7 1011.8 1011.6 0.0
26/01:00am 24.5 28.0 22.1 86 1.6 SSE 7 9 4 5 1012.0 1011.8 0.0
26/12:30am 24.9 28.4 22.1 84 1.9 S 7 9 4 5 1012.0 1011.8 0.0
26/12:00am 25.1 28.3 22.3 84 1.9 SE 9 11 5 6 1012.1 1011.9 0.0
 
Date/Time
CST
Temp
°C
App
Temp
°C
Dew
Point
°C
Rel
Hum
%
Delta-T
°C
Wind Press
QNH
hPa
Press
MSL
hPa
Rain since
9am
mm
Dir  Spd
km/h
Gust
km/h
Spd
kts
Gust
kts
25/11:30pm 24.9 27.7 21.6 82 2.2 SSE 9 9 5 5 1012.0 1011.8 0.0
25/11:00pm 25.3 28.5 21.2 78 2.7 SSE 6 9 3 5 1012.1 1011.9 0.0
25/10:30pm 24.6 28.4 21.6 83 2.0 ESE 4 4 2 2 1012.0 1011.8 0.0
25/10:00pm 24.9 28.9 21.4 81 2.3 ENE 2 4 1 2 1012.0 1011.8 0.0
25/09:30pm 25.2 28.9 21.4 79 2.5 ENE 4 4 2 2 1012.0 1011.8 0.0
25/09:00pm 25.9 29.2 21.4 76 3.0 ENE 6 6 3 3 1011.9 1011.7 0.0
25/08:30pm 25.8 29.1 21.4 76 2.9 NE 6 7 3 4 1011.8 1011.6 0.0
25/08:00pm 26.4 29.5 21.4 74 3.3 NE 7 13 4 7 1011.6 1011.4 0.0
25/07:30pm 27.0 29.7 21.3 71 3.8 NNE 9 11 5 6 1011.3 1011.1 0.0
25/07:00pm 27.9 30.4 21.1 66 4.5 NE 9 11 5 6 1011.0 1010.8 0.0
25/06:30pm 28.8 30.8 20.8 62 5.3 NE 11 15 6 8 1010.7 1010.5 0.0
25/06:00pm 30.1 31.5 20.3 55 6.5 NE 13 19 7 10 1010.4 1010.2 0.0
25/05:30pm 30.7 31.5 19.9 52 7.1 NE 15 20 8 11 1010.1 1009.9 0.0
25/05:00pm 31.4 31.7 19.7 49 7.7 NE 17 20 9 11 1009.9 1009.7 0.0
25/04:30pm 32.1 32.4 18.8 45 8.7 NE 15 24 8 13 1009.7 1009.5 0.0
25/04:00pm 32.4 31.3 17.8 41 9.4 E 20 28 11 15 1009.7 1009.5 0.0
25/03:30pm 32.6 31.4 17.5 40 9.7 ENE 20 28 11 15 1009.7 1009.5 0.0
25/03:00pm 32.8 31.3 16.7 38 10.2 E 20 28 11 15 1010.0 1009.8 0.0
25/02:30pm 32.3 30.1 16.0 37 10.2 ENE 22 32 12 17 1010.3 1010.1 0.0
25/02:00pm 32.3 29.6 15.6 36 10.4 ENE 24 33 13 18 1010.8 1010.6 0.0
25/01:30pm 32.4 29.5 16.0 37 10.3 ENE 26 43 14 23 1011.3 1011.1 0.0
25/01:00pm 31.9 28.3 16.3 39 9.8 E 30 39 16 21 1011.8 1011.6 0.0
25/12:46pm 31.9 28.6 16.1 38 9.9 E 28 37 15 20 1012.0 1011.8 0.0
25/12:30pm 31.5 28.3 16.2 39 9.6 ENE 28 46 15 25 1012.2 1012.0 0.0
25/12:25pm 31.9 28.6 16.1 38 9.9 E 28 46 15 25 1012.3 1012.1 0.0
25/12:00pm 31.5 28.1 16.8 41 9.3 ENE 30 39 16 21 1012.6 1012.4 0.0
25/11:30am 30.6 28.6 17.4 45 8.4 E 24 35 13 19 1013.1 1012.9 0.0
25/11:00am 29.4 27.5 17.6 49 7.5 ENE 24 30 13 16 1013.5 1013.3 0.0

Latest Capital City Observations: Canberra | Sydney | Melbourne | Brisbane | Adelaide | Perth | Hobart | Darwin

Other Formats:

Comma delimited format used in spreadsheet applications
http://www.bom.gov.au/fwo/IDD60901/IDD60901.94120.axf

JavaScript Object Notation format (JSON) in row-major order
http://www.bom.gov.au/fwo/IDD60901/IDD60901.94120.json